createdAt,value
2017-07-21T02:36:27.523Z,988.99
2017-07-21T02:37:27.523Z,988.99
2017-07-21T02:38:27.526Z,988.99
2017-07-21T02:39:27.527Z,989.04
2017-07-21T02:40:27.530Z,988.99
2017-07-21T02:41:27.533Z,989.04
2017-07-21T02:42:27.532Z,989.05
2017-07-21T02:43:27.535Z,989.07
2017-07-21T02:44:27.546Z,989.07
2017-07-21T02:45:27.537Z,989.09
2017-07-21T02:46:27.539Z,989.08
2017-07-21T02:47:27.541Z,989.12
2017-07-21T02:48:27.543Z,989.14
2017-07-21T02:49:27.545Z,989.1
2017-07-21T02:50:27.546Z,989.11
2017-07-21T02:51:27.598Z,989.14
2017-07-21T02:52:27.551Z,989.14
2017-07-21T02:53:27.570Z,989.12
2017-07-21T02:54:27.568Z,989.18
2017-07-21T02:55:27.572Z,989.16
2017-07-21T02:56:27.630Z,989.18
2017-07-21T02:57:27.606Z,989.17
2017-07-21T02:58:27.594Z,989.19
2017-07-21T02:59:27.576Z,989.23
2017-07-21T03:00:27.565Z,989.27
2017-07-21T03:01:27.579Z,989.24
2017-07-21T03:02:27.580Z,989.25
2017-07-21T03:03:27.581Z,989.28
2017-07-21T03:04:27.579Z,989.3
2017-07-21T03:05:27.629Z,989.28
2017-07-21T03:06:28.030Z,989.27
2017-07-21T03:07:27.586Z,989.31
2017-07-21T03:08:27.645Z,989.31
2017-07-21T03:09:27.626Z,989.26
2017-07-21T03:10:27.659Z,989.23
2017-07-21T03:11:27.689Z,989.24
2017-07-21T03:12:27.639Z,989.23
2017-07-21T03:13:27.590Z,989.26
2017-07-21T03:14:27.592Z,989.28
2017-07-21T03:15:27.593Z,989.29
2017-07-21T03:16:27.716Z,989.29
2017-07-21T03:17:27.599Z,989.29
2017-07-21T03:18:27.600Z,989.27
2017-07-21T03:19:27.622Z,989.23
2017-07-21T03:20:27.682Z,989.28
2017-07-21T03:21:28.460Z,989.24
2017-07-21T03:22:27.607Z,989.29
2017-07-21T03:23:27.636Z,989.32
2017-07-21T03:24:27.611Z,989.25
2017-07-21T03:25:27.650Z,989.34
2017-07-21T03:26:27.666Z,989.32
2017-07-21T03:27:27.658Z,989.31
2017-07-21T03:28:27.673Z,989.32
2017-07-21T03:29:27.647Z,989.31
2017-07-21T03:30:27.686Z,989.32
2017-07-21T03:31:27.694Z,989.29
2017-07-21T03:32:27.625Z,989.3
2017-07-21T03:33:27.625Z,989.28
2017-07-21T03:34:27.628Z,989.3
2017-07-21T03:35:27.629Z,989.3
2017-07-21T03:36:27.632Z,989.32
2017-07-21T03:37:27.638Z,989.32
2017-07-21T03:38:27.635Z,989.35
2017-07-21T03:39:27.636Z,989.37
2017-07-21T03:40:27.640Z,989.35
2017-07-21T03:41:27.641Z,989.31
2017-07-21T03:42:27.649Z,989.34
2017-07-21T03:43:27.644Z,989.3
2017-07-21T03:44:27.646Z,989.29
2017-07-21T03:45:27.646Z,989.31
2017-07-21T03:46:27.658Z,989.33
2017-07-21T03:47:27.660Z,989.32
2017-07-21T03:48:27.660Z,989.32
2017-07-21T03:49:27.660Z,989.34
2017-07-21T03:50:27.661Z,989.31
2017-07-21T03:51:27.662Z,989.34
2017-07-21T03:52:27.663Z,989.31
2017-07-21T03:53:27.663Z,989.36
2017-07-21T03:54:27.664Z,989.29
2017-07-21T03:55:27.665Z,989.34
2017-07-21T03:56:27.668Z,989.28
2017-07-21T03:57:27.669Z,989.32
2017-07-21T03:58:27.672Z,989.3
2017-07-21T03:59:27.677Z,989.32
2017-07-21T04:00:27.678Z,989.28
2017-07-21T04:01:27.677Z,989.23
2017-07-21T04:02:27.696Z,989.25
2017-07-21T04:03:27.698Z,989.25
2017-07-21T04:04:27.697Z,989.23
2017-07-21T04:05:27.729Z,989.27
2017-07-21T04:06:27.698Z,989.3
2017-07-21T04:07:27.697Z,989.31
2017-07-21T04:08:27.700Z,989.33
2017-07-21T04:09:27.703Z,989.35
2017-07-21T04:10:27.701Z,989.37
2017-07-21T04:11:27.704Z,989.3
2017-07-21T04:12:27.703Z,989.27
2017-07-21T04:13:27.708Z,989.28
2017-07-21T04:14:27.707Z,989.29
2017-07-21T04:15:27.711Z,989.26
2017-07-21T04:16:27.725Z,989.26
2017-07-21T04:17:27.716Z,989.3
2017-07-21T04:18:27.720Z,989.34
2017-07-21T04:19:27.716Z,989.33
2017-07-21T04:20:27.720Z,989.37
2017-07-21T04:21:27.722Z,989.4
2017-07-21T04:22:27.770Z,989.39
2017-07-21T04:23:27.726Z,989.39
2017-07-21T04:24:27.728Z,989.38
2017-07-21T04:25:27.729Z,989.43
2017-07-21T04:26:27.735Z,989.5
2017-07-21T04:27:27.735Z,989.5
2017-07-21T04:28:27.734Z,989.52
2017-07-21T04:29:27.742Z,989.53
2017-07-21T04:30:27.737Z,989.56
2017-07-21T04:31:27.748Z,989.53
2017-07-21T04:32:27.750Z,989.54
2017-07-21T04:33:27.745Z,989.59
2017-07-21T04:34:27.751Z,989.57
2017-07-21T04:35:27.755Z,989.55
2017-07-21T04:36:27.754Z,989.49
2017-07-21T04:37:29.672Z,989.43
2017-07-21T04:38:27.773Z,989.43
2017-07-21T04:39:27.775Z,989.44
2017-07-21T04:40:27.774Z,989.43
2017-07-21T04:41:27.778Z,989.43
2017-07-21T04:42:27.776Z,989.39
2017-07-21T04:43:27.778Z,989.41
2017-07-21T04:44:27.790Z,989.4
2017-07-21T04:45:27.793Z,989.39
2017-07-21T04:46:27.792Z,989.36
2017-07-21T04:47:27.803Z,989.35
2017-07-21T04:48:27.807Z,989.3
2017-07-21T04:49:27.809Z,989.33
2017-07-21T04:50:27.812Z,989.23
2017-07-21T04:51:27.822Z,989.23
2017-07-21T04:52:27.822Z,989.32
2017-07-21T04:53:27.828Z,989.33
2017-07-21T04:54:27.850Z,989.35
2017-07-21T04:55:27.843Z,989.26
2017-07-21T04:56:27.840Z,989.26
2017-07-21T04:57:27.851Z,989.26
2017-07-21T04:58:27.850Z,989.28
2017-07-21T04:59:27.852Z,989.25
2017-07-21T05:00:27.860Z,989.26
2017-07-21T05:01:27.863Z,989.28
2017-07-21T05:02:27.868Z,989.23
2017-07-21T05:03:27.870Z,989.25
2017-07-21T05:04:27.876Z,989.28
2017-07-21T05:05:27.880Z,989.25
2017-07-21T05:06:27.885Z,989.25
2017-07-21T05:07:27.893Z,989.27
2017-07-21T05:08:27.892Z,989.27
2017-07-21T05:09:27.896Z,989.25
2017-07-21T05:10:27.900Z,989.24
2017-07-21T05:11:27.905Z,989.26
2017-07-21T05:12:27.908Z,989.27
2017-07-21T05:13:27.912Z,989.26
2017-07-21T05:14:27.915Z,989.25
2017-07-21T05:15:27.918Z,989.28
2017-07-21T05:16:27.925Z,989.3
2017-07-21T05:17:27.927Z,989.26
2017-07-21T05:18:27.929Z,989.32
2017-07-21T05:19:27.933Z,989.36
2017-07-21T05:20:27.938Z,989.29
2017-07-21T05:21:27.941Z,989.3
2017-07-21T05:22:27.945Z,989.32
2017-07-21T05:23:27.949Z,989.34
2017-07-21T05:24:27.953Z,989.33
2017-07-21T05:25:27.957Z,989.28
2017-07-21T05:26:27.960Z,989.28
2017-07-21T05:27:27.965Z,989.29
2017-07-21T05:28:27.968Z,989.29
2017-07-21T05:29:27.972Z,989.26
2017-07-21T05:30:27.978Z,989.3
2017-07-21T05:31:27.982Z,989.25
2017-07-21T05:32:27.982Z,989.32
2017-07-21T05:33:27.988Z,989.3
2017-07-21T05:34:27.992Z,989.28
2017-07-21T05:35:27.996Z,989.27
2017-07-21T05:36:27.998Z,989.28
2017-07-21T05:37:28.003Z,989.31
2017-07-21T05:38:28.014Z,989.32
2017-07-21T05:39:28.018Z,989.38
2017-07-21T05:40:28.016Z,989.37
2017-07-21T05:41:28.022Z,989.4
2017-07-21T05:42:28.024Z,989.41
2017-07-21T05:43:28.034Z,989.42
2017-07-21T05:44:28.035Z,989.45
2017-07-21T05:45:28.035Z,989.42
2017-07-21T05:46:28.039Z,989.44
2017-07-21T05:47:28.044Z,989.43
2017-07-21T05:48:28.048Z,989.38
2017-07-21T05:49:28.050Z,989.4
2017-07-21T05:50:28.053Z,989.44
2017-07-21T05:51:28.058Z,989.43
2017-07-21T05:52:28.061Z,989.43
2017-07-21T05:53:28.066Z,989.4
2017-07-21T05:54:28.068Z,989.42
2017-07-21T05:55:28.072Z,989.43
2017-07-21T05:56:28.080Z,989.45
2017-07-21T05:57:28.080Z,989.48
2017-07-21T05:58:28.082Z,989.5
2017-07-21T05:59:28.089Z,989.55
2017-07-21T06:00:28.106Z,989.5
2017-07-21T06:01:28.101Z,989.45
2017-07-21T06:02:28.100Z,989.47
2017-07-21T06:03:28.105Z,989.43
2017-07-21T06:04:28.107Z,989.35
2017-07-21T06:05:28.108Z,989.36
2017-07-21T06:06:28.113Z,989.38
2017-07-21T06:07:28.118Z,989.41
2017-07-21T06:08:28.123Z,989.42
2017-07-21T06:09:28.126Z,989.43
2017-07-21T06:10:28.129Z,989.48
2017-07-21T06:11:28.132Z,989.46
2017-07-21T06:12:28.135Z,989.48
2017-07-21T06:13:28.139Z,989.62
2017-07-21T06:14:28.144Z,989.68
2017-07-21T06:15:28.149Z,989.68
2017-07-21T06:16:28.159Z,989.68
2017-07-21T06:17:28.155Z,989.6
2017-07-21T06:18:28.165Z,989.69
2017-07-21T06:19:28.171Z,989.68
2017-07-21T06:20:28.174Z,989.7
2017-07-21T06:21:28.175Z,989.65
2017-07-21T06:22:28.178Z,989.65
2017-07-21T06:23:28.181Z,989.75
2017-07-21T06:24:28.185Z,989.75
2017-07-21T06:25:28.192Z,989.67
2017-07-21T06:26:28.197Z,989.71
2017-07-21T06:27:28.207Z,989.58
2017-07-21T06:28:28.209Z,989.68
2017-07-21T06:29:28.213Z,989.62
2017-07-21T06:30:28.219Z,989.73
2017-07-21T06:31:28.224Z,989.72
2017-07-21T06:32:28.230Z,989.71
2017-07-21T06:33:28.237Z,989.79
2017-07-21T06:34:28.243Z,989.81
2017-07-21T06:35:28.250Z,989.73
2017-07-21T06:36:28.254Z,989.87
2017-07-21T06:37:28.263Z,989.85
2017-07-21T06:38:28.282Z,989.75
2017-07-21T06:39:28.284Z,989.76
2017-07-21T06:40:28.285Z,989.83
2017-07-21T06:41:28.301Z,989.77
2017-07-21T06:42:28.298Z,989.72
2017-07-21T06:43:28.300Z,989.68
2017-07-21T06:44:28.306Z,989.71
2017-07-21T06:45:28.312Z,989.69
2017-07-21T06:46:28.318Z,989.68
2017-07-21T06:47:28.325Z,989.75
2017-07-21T06:48:28.350Z,989.84
2017-07-21T06:49:28.346Z,989.81
2017-07-21T06:50:28.346Z,989.76
2017-07-21T06:51:28.354Z,989.68
2017-07-21T06:52:28.358Z,989.64
2017-07-21T06:53:28.363Z,989.74
2017-07-21T06:54:28.372Z,989.75
2017-07-21T06:55:28.377Z,989.75
2017-07-21T06:56:28.383Z,989.75
2017-07-21T06:57:28.391Z,989.7
2017-07-21T06:58:28.398Z,989.65
2017-07-21T06:59:28.403Z,989.64
2017-07-21T07:00:28.410Z,989.63
2017-07-21T07:01:28.416Z,989.69
2017-07-21T07:02:28.427Z,989.65
2017-07-21T07:03:28.428Z,989.7
2017-07-21T07:04:28.435Z,989.72
2017-07-21T07:05:28.442Z,989.67
2017-07-21T07:06:28.449Z,989.67
2017-07-21T07:07:28.454Z,989.63
2017-07-21T07:08:28.462Z,989.69
2017-07-21T07:09:28.466Z,989.7
2017-07-21T07:10:28.473Z,989.73
2017-07-21T07:11:28.479Z,989.74
2017-07-21T07:12:28.486Z,989.78
2017-07-21T07:13:28.492Z,989.75
2017-07-21T07:14:28.509Z,989.76
2017-07-21T07:15:28.503Z,989.78
2017-07-21T07:16:28.522Z,989.76
2017-07-21T07:17:28.518Z,989.81
2017-07-21T07:18:28.523Z,989.8
2017-07-21T07:19:28.532Z,989.81
2017-07-21T07:20:28.535Z,989.82
2017-07-21T07:21:28.544Z,989.81
2017-07-21T07:22:28.551Z,989.81
2017-07-21T07:23:31.511Z,989.84
2017-07-21T07:24:28.565Z,989.82
2017-07-21T07:25:28.570Z,989.83
2017-07-21T07:26:28.576Z,989.75
2017-07-21T07:27:28.584Z,989.74
2017-07-21T07:28:28.593Z,989.75
2017-07-21T07:29:28.601Z,989.69
2017-07-21T07:30:28.604Z,989.67
2017-07-21T07:31:28.612Z,989.67
2017-07-21T07:32:28.620Z,989.72
2017-07-21T07:33:28.627Z,989.68
2017-07-21T07:34:28.633Z,989.7
2017-07-21T07:35:28.641Z,989.71
2017-07-21T07:36:28.648Z,989.72
2017-07-21T07:37:28.669Z,989.75
2017-07-21T07:38:28.668Z,989.7
2017-07-21T07:39:28.673Z,989.74
2017-07-21T07:40:28.681Z,989.72
2017-07-21T07:41:28.692Z,989.65
2017-07-21T07:42:28.698Z,989.71
2017-07-21T07:43:28.707Z,989.69
2017-07-21T07:44:28.716Z,989.61
2017-07-21T07:45:28.724Z,989.66
2017-07-21T07:46:28.732Z,989.61
2017-07-21T07:47:28.740Z,989.59
2017-07-21T07:48:28.750Z,989.56
2017-07-21T07:49:28.758Z,989.59
2017-07-21T07:50:28.768Z,989.56
2017-07-21T07:51:28.775Z,989.52
2017-07-21T07:52:28.788Z,989.59
2017-07-21T07:53:28.793Z,989.57
2017-07-21T07:54:28.802Z,989.52
2017-07-21T07:55:28.809Z,989.59
2017-07-21T07:56:28.818Z,989.57
2017-07-21T07:57:28.826Z,989.62
2017-07-21T07:58:28.832Z,989.58
2017-07-21T07:59:28.842Z,989.57
2017-07-21T08:00:28.852Z,989.61
2017-07-21T08:01:28.857Z,989.57
2017-07-21T08:02:28.863Z,989.58
2017-07-21T08:03:28.872Z,989.53
2017-07-21T08:04:28.885Z,989.59
2017-07-21T08:05:28.887Z,989.53
2017-07-21T08:06:28.893Z,989.57
2017-07-21T08:07:28.901Z,989.56
2017-07-21T08:08:28.907Z,989.51
2017-07-21T08:09:28.913Z,989.49
2017-07-21T08:10:28.921Z,989.51
2017-07-21T08:11:28.929Z,989.51
2017-07-21T08:12:28.937Z,989.51
2017-07-21T08:13:28.943Z,989.5
2017-07-21T08:14:28.949Z,989.49
2017-07-21T08:15:28.957Z,989.5
2017-07-21T08:16:28.965Z,989.48
2017-07-21T08:17:28.970Z,989.49
2017-07-21T08:18:28.978Z,989.45
2017-07-21T08:19:28.986Z,989.46
2017-07-21T08:20:28.993Z,989.49
2017-07-21T08:21:28.998Z,989.51
2017-07-21T08:22:29.006Z,989.5
2017-07-21T08:23:29.014Z,989.46
2017-07-21T08:24:29.020Z,989.47
2017-07-21T08:25:29.029Z,989.53
2017-07-21T08:26:29.035Z,989.47
2017-07-21T08:27:29.042Z,989.45
2017-07-21T08:28:29.055Z,989.48
2017-07-21T08:29:29.059Z,989.41
2017-07-21T08:30:29.063Z,989.46
2017-07-21T08:31:29.069Z,989.49
2017-07-21T08:32:29.075Z,989.43
2017-07-21T08:33:29.087Z,989.44
2017-07-21T08:34:29.091Z,989.45
2017-07-21T08:35:29.097Z,989.48
2017-07-21T08:36:29.105Z,989.45
2017-07-21T08:37:29.117Z,989.37
2017-07-21T08:38:29.125Z,989.34
2017-07-21T08:39:29.132Z,989.35
2017-07-21T08:40:29.135Z,989.34
2017-07-21T08:41:29.142Z,989.31
2017-07-21T08:42:29.149Z,989.29
2017-07-21T08:43:29.157Z,989.32
2017-07-21T08:44:29.168Z,989.29
2017-07-21T08:45:29.173Z,989.29
2017-07-21T08:46:29.183Z,989.23
2017-07-21T08:47:29.191Z,989.16
2017-07-21T08:48:29.196Z,989.19
2017-07-21T08:49:29.208Z,989.12
2017-07-21T08:50:29.233Z,989.13
2017-07-21T08:51:29.222Z,989.1
2017-07-21T08:52:29.233Z,989.1
2017-07-21T08:53:29.238Z,989.09
2017-07-21T08:54:34.452Z,989.05
2017-07-21T08:55:29.257Z,989.04
2017-07-21T08:56:29.264Z,989.03
2017-07-21T08:57:29.271Z,989
2017-07-21T08:58:29.280Z,989
2017-07-21T08:59:29.294Z,988.97
2017-07-21T09:00:29.297Z,988.94
2017-07-21T09:01:29.305Z,988.94
2017-07-21T09:02:29.314Z,988.93
2017-07-21T09:03:29.324Z,988.92
2017-07-21T09:04:29.331Z,988.92
2017-07-21T09:05:29.339Z,988.91
2017-07-21T09:06:29.347Z,988.87
2017-07-21T09:07:29.359Z,988.81
2017-07-21T09:08:29.375Z,988.87
2017-07-21T09:09:29.374Z,988.85
2017-07-21T09:10:29.383Z,988.79
2017-07-21T09:11:29.388Z,988.78
2017-07-21T09:12:29.395Z,988.75
2017-07-21T09:13:29.401Z,988.78
2017-07-21T09:14:29.409Z,988.77
2017-07-21T09:15:29.416Z,988.71
2017-07-21T09:16:29.423Z,988.72
2017-07-21T09:17:29.431Z,988.68
2017-07-21T09:18:29.440Z,988.69
2017-07-21T09:19:29.442Z,988.68
2017-07-21T09:20:29.449Z,988.66
2017-07-21T09:21:29.456Z,988.65
2017-07-21T09:22:29.462Z,988.63
2017-07-21T09:23:29.467Z,988.65
2017-07-21T09:24:29.474Z,988.69
2017-07-21T09:25:29.479Z,988.64
2017-07-21T09:26:29.485Z,988.63
2017-07-21T09:27:29.492Z,988.67
2017-07-21T09:28:29.497Z,988.64
2017-07-21T09:29:29.503Z,988.61
2017-07-21T09:30:29.508Z,988.61
2017-07-21T09:31:29.515Z,988.58
2017-07-21T09:32:29.522Z,988.58
2017-07-21T09:33:29.551Z,988.58
2017-07-21T09:34:29.615Z,988.54
2017-07-21T09:35:29.616Z,988.52
2017-07-21T09:36:29.551Z,988.57
2017-07-21T09:37:29.555Z,988.52
2017-07-21T09:38:29.556Z,988.48
2017-07-21T09:39:29.561Z,988.53
2017-07-21T09:40:29.567Z,988.52
2017-07-21T09:41:29.573Z,988.51
2017-07-21T09:42:29.579Z,988.5
2017-07-21T09:43:29.590Z,988.51
2017-07-21T09:44:29.589Z,988.45
2017-07-21T09:45:29.599Z,988.46
2017-07-21T09:46:29.609Z,988.47
2017-07-21T09:47:29.607Z,988.43
2017-07-21T09:48:29.612Z,988.41
2017-07-21T09:49:29.624Z,988.41
2017-07-21T09:50:29.625Z,988.39
2017-07-21T09:51:29.630Z,988.39
2017-07-21T09:52:29.636Z,988.37
2017-07-21T09:53:29.659Z,988.37
2017-07-21T09:54:29.646Z,988.36
2017-07-21T09:55:29.661Z,988.32
2017-07-21T09:56:29.666Z,988.33
2017-07-21T09:57:29.665Z,988.31
2017-07-21T09:58:29.671Z,988.32
2017-07-21T09:59:29.677Z,988.32
2017-07-21T10:00:29.682Z,988.3
2017-07-21T10:01:29.688Z,988.31
2017-07-21T10:02:29.693Z,988.28
2017-07-21T10:03:29.701Z,988.26
2017-07-21T10:04:29.709Z,988.27
2017-07-21T10:05:29.713Z,988.23
2017-07-21T10:06:29.716Z,988.33
2017-07-21T10:07:29.727Z,988.25
2017-07-21T10:08:29.732Z,988.23
2017-07-21T10:09:29.734Z,988.26
2017-07-21T10:10:29.789Z,988.18
2017-07-21T10:11:29.743Z,988.16
2017-07-21T10:12:29.749Z,988.19
2017-07-21T10:13:29.775Z,988.15
2017-07-21T10:14:29.762Z,988.15
2017-07-21T10:15:29.781Z,988.15
2017-07-21T10:16:29.772Z,988.14
2017-07-21T10:17:29.777Z,988.18
2017-07-21T10:18:29.785Z,988.13
2017-07-21T10:19:29.791Z,988.13
2017-07-21T10:20:29.796Z,988.09
2017-07-21T10:21:29.802Z,988.08
2017-07-21T10:22:29.811Z,988.1
2017-07-21T10:23:29.814Z,988.11
2017-07-21T10:24:29.824Z,988.08
2017-07-21T10:25:30.377Z,988.11
2017-07-21T10:26:29.832Z,988.08
2017-07-21T10:27:29.841Z,988.09
2017-07-21T10:28:29.845Z,988.09
2017-07-21T10:29:29.850Z,988.06
2017-07-21T10:30:29.858Z,988.06
2017-07-21T10:31:29.862Z,988.03
2017-07-21T10:32:29.869Z,988.04
2017-07-21T10:33:29.876Z,988.01
2017-07-21T10:34:29.881Z,988.04
2017-07-21T10:35:29.886Z,988
2017-07-21T10:36:29.893Z,987.96
2017-07-21T10:37:29.900Z,987.95
2017-07-21T10:38:29.904Z,987.92
2017-07-21T10:39:29.909Z,987.9
2017-07-21T10:40:34.872Z,987.86
2017-07-21T10:41:29.922Z,987.88
2017-07-21T10:42:29.928Z,987.84
2017-07-21T10:43:29.933Z,987.84
2017-07-21T10:44:29.942Z,987.8
2017-07-21T10:45:29.949Z,987.77
2017-07-21T10:46:29.954Z,987.77
2017-07-21T10:47:29.959Z,987.73
2017-07-21T10:48:29.972Z,987.78
2017-07-21T10:49:29.972Z,987.71
2017-07-21T10:50:29.978Z,987.66
2017-07-21T10:51:29.982Z,987.67
2017-07-21T10:52:29.989Z,987.68
2017-07-21T10:53:29.996Z,987.71
2017-07-21T10:54:30.001Z,987.67
2017-07-21T10:55:30.014Z,987.66
2017-07-21T10:56:30.017Z,987.64
2017-07-21T10:57:30.018Z,987.69
2017-07-21T10:58:30.023Z,987.65
2017-07-21T10:59:30.040Z,987.67
2017-07-21T11:00:30.037Z,987.66
2017-07-21T11:01:30.040Z,987.66
2017-07-21T11:02:30.050Z,987.64
2017-07-21T11:03:30.056Z,987.66
2017-07-21T11:04:30.060Z,987.61
2017-07-21T11:05:30.067Z,987.57
2017-07-21T11:06:30.073Z,987.55
2017-07-21T11:07:30.081Z,987.55
2017-07-21T11:08:30.083Z,987.49
2017-07-21T11:09:30.090Z,987.5
2017-07-21T11:10:30.099Z,987.52
2017-07-21T11:11:30.155Z,987.54
2017-07-21T11:12:30.110Z,987.49
2017-07-21T11:13:30.115Z,987.54
2017-07-21T11:14:30.123Z,987.52
2017-07-21T11:15:30.131Z,987.53
2017-07-21T11:16:30.135Z,987.52
2017-07-21T11:17:30.140Z,987.47
2017-07-21T11:18:30.151Z,987.43
2017-07-21T11:19:30.152Z,987.44
2017-07-21T11:20:30.161Z,987.44
2017-07-21T11:21:30.167Z,987.42
2017-07-21T11:22:30.179Z,987.43
2017-07-21T11:23:30.180Z,987.42
2017-07-21T11:24:30.185Z,987.42
2017-07-21T11:25:30.191Z,987.4
2017-07-21T11:26:32.149Z,987.37
2017-07-21T11:27:30.204Z,987.28
2017-07-21T11:28:30.210Z,987.27
2017-07-21T11:29:30.216Z,987.28
2017-07-21T11:30:30.224Z,987.27
2017-07-21T11:31:30.232Z,987.32
2017-07-21T11:32:30.238Z,987.32
2017-07-21T11:33:30.242Z,987.24
2017-07-21T11:34:30.249Z,987.31
2017-07-21T11:35:30.255Z,987.36
2017-07-21T11:36:30.264Z,987.35
2017-07-21T11:37:30.268Z,987.4
2017-07-21T11:38:30.283Z,987.36
2017-07-21T11:39:30.280Z,987.37
2017-07-21T11:40:30.287Z,987.35
2017-07-21T11:41:30.293Z,987.31
2017-07-21T11:42:30.302Z,987.31
2017-07-21T11:43:30.304Z,987.3
2017-07-21T11:44:30.311Z,987.29
2017-07-21T11:45:30.322Z,987.29
2017-07-21T11:46:30.324Z,987.24
2017-07-21T11:47:30.331Z,987.32
2017-07-21T11:48:30.339Z,987.3
2017-07-21T11:49:30.351Z,987.31
2017-07-21T11:50:30.353Z,987.32
2017-07-21T11:51:30.354Z,987.3
2017-07-21T11:52:30.365Z,987.24
2017-07-21T11:53:30.366Z,987.24
2017-07-21T11:54:30.372Z,987.23
2017-07-21T11:55:30.380Z,987.25
2017-07-21T11:56:30.450Z,987.23
2017-07-21T11:57:30.393Z,987.16
2017-07-21T11:58:30.398Z,987.15
2017-07-21T11:59:30.404Z,987.13
2017-07-21T12:00:30.410Z,987.1
2017-07-21T12:01:30.418Z,987.16
2017-07-21T12:02:30.425Z,987.19
2017-07-21T12:03:30.430Z,987.14
2017-07-21T12:04:30.435Z,987.06
2017-07-21T12:05:30.441Z,987.02
2017-07-21T12:06:30.449Z,987.07
2017-07-21T12:07:30.452Z,987.01
2017-07-21T12:08:30.460Z,986.99
2017-07-21T12:09:30.467Z,987.01
2017-07-21T12:10:30.471Z,986.99
2017-07-21T12:11:30.479Z,986.97
2017-07-21T12:12:30.536Z,987
2017-07-21T12:13:30.490Z,987
2017-07-21T12:14:30.518Z,986.97
2017-07-21T12:15:30.502Z,987.01
2017-07-21T12:16:30.512Z,987.01
2017-07-21T12:17:30.516Z,986.97
2017-07-21T12:18:30.521Z,986.88
2017-07-21T12:19:30.530Z,986.9
2017-07-21T12:20:30.535Z,986.94
2017-07-21T12:21:30.539Z,986.96
2017-07-21T12:22:30.547Z,986.96
2017-07-21T12:23:30.554Z,986.9
2017-07-21T12:24:30.561Z,986.91
2017-07-21T12:25:30.565Z,986.94
2017-07-21T12:26:30.573Z,986.94
2017-07-21T12:27:33.435Z,986.98
2017-07-21T12:28:30.586Z,986.91
2017-07-21T12:29:30.596Z,986.94
2017-07-21T12:30:30.599Z,986.93
2017-07-21T12:31:30.605Z,986.93
2017-07-21T12:32:30.636Z,986.91
2017-07-21T12:33:30.624Z,986.89
2017-07-21T12:34:30.624Z,986.94
2017-07-21T12:35:30.630Z,986.9
2017-07-21T12:36:30.636Z,986.91
2017-07-21T12:37:30.643Z,986.88
2017-07-21T12:38:30.682Z,986.85
2017-07-21T12:39:30.657Z,986.86
2017-07-21T12:40:30.663Z,986.83
2017-07-21T12:41:30.670Z,986.79
2017-07-21T12:42:30.676Z,986.83
2017-07-21T12:43:30.683Z,986.84
2017-07-21T12:44:30.699Z,986.79
2017-07-21T12:45:30.698Z,986.83
2017-07-21T12:46:30.704Z,986.79
2017-07-21T12:47:30.709Z,986.8
2017-07-21T12:48:30.717Z,986.8
2017-07-21T12:49:30.723Z,986.77
2017-07-21T12:50:30.735Z,986.78
2017-07-21T12:51:30.740Z,986.73
2017-07-21T12:52:30.743Z,986.76
2017-07-21T12:53:30.751Z,986.71
2017-07-21T12:54:30.757Z,986.68
2017-07-21T12:55:30.762Z,986.66
2017-07-21T12:56:30.769Z,986.67
2017-07-21T12:57:30.777Z,986.67
2017-07-21T12:58:30.785Z,986.69
2017-07-21T12:59:30.790Z,986.67
2017-07-21T13:00:30.800Z,986.67
2017-07-21T13:01:30.804Z,986.65
2017-07-21T13:02:30.809Z,986.72
2017-07-21T13:03:30.818Z,986.63
2017-07-21T13:04:30.823Z,986.55
2017-07-21T13:05:30.828Z,986.59
2017-07-21T13:06:30.861Z,986.61
2017-07-21T13:07:30.852Z,986.55
2017-07-21T13:08:30.849Z,986.46
2017-07-21T13:09:30.855Z,986.46
2017-07-21T13:10:30.863Z,986.46
2017-07-21T13:11:30.870Z,986.42
2017-07-21T13:12:30.877Z,986.42
2017-07-21T13:13:30.893Z,986.41
2017-07-21T13:14:30.895Z,986.43
2017-07-21T13:15:30.899Z,986.46
2017-07-21T13:16:30.912Z,986.45
2017-07-21T13:17:30.910Z,986.46
2017-07-21T13:18:30.914Z,986.41
2017-07-21T13:19:30.923Z,986.43
2017-07-21T13:20:30.950Z,986.38
2017-07-21T13:21:30.941Z,986.34
2017-07-21T13:22:30.944Z,986.35
2017-07-21T13:23:30.971Z,986.28
2017-07-21T13:24:30.968Z,986.34
2017-07-21T13:25:30.962Z,986.28
2017-07-21T13:26:30.972Z,986.29
2017-07-21T13:27:30.975Z,986.33
2017-07-21T13:28:33.686Z,986.33
2017-07-21T13:29:30.989Z,986.3
2017-07-21T13:30:31.003Z,986.36
2017-07-21T13:31:31.006Z,986.41
2017-07-21T13:32:31.010Z,986.38
2017-07-21T13:33:31.019Z,986.33
2017-07-21T13:34:31.024Z,986.37
2017-07-21T13:35:31.039Z,986.23
2017-07-21T14:17:58.219Z,985.69
2017-07-21T14:18:58.226Z,985.53
2017-07-21T14:19:58.232Z,985.61
2017-07-21T14:20:58.239Z,985.6
2017-07-21T14:21:58.250Z,985.57
2017-07-21T14:22:58.251Z,985.59
2017-07-21T14:23:58.259Z,985.53
2017-07-21T14:24:58.275Z,985.58
2017-07-21T14:25:58.274Z,985.56
2017-07-21T14:26:58.277Z,985.57
2017-07-21T14:27:58.282Z,985.47
2017-07-21T14:28:58.290Z,985.48
2017-07-21T14:29:58.311Z,985.43
2017-07-21T14:30:58.307Z,985.44
2017-07-21T14:31:58.311Z,985.44
2017-07-21T14:32:58.617Z,985.49
2017-07-21T14:33:58.323Z,985.5
2017-07-21T14:34:58.331Z,985.52
2017-07-21T14:35:58.432Z,985.5
2017-07-21T14:36:58.341Z,985.54
2017-07-21T14:37:58.373Z,985.47
2017-07-21T14:38:58.385Z,985.45
2017-07-21T14:39:58.362Z,985.44
2017-07-21T14:40:58.368Z,985.43
2017-07-21T14:41:58.377Z,985.38
2017-07-21T14:42:58.459Z,985.31
2017-07-21T14:43:58.420Z,985.33
2017-07-21T14:44:58.397Z,985.29
2017-07-21T14:45:58.402Z,985.24
2017-07-21T14:46:58.409Z,985.26
2017-07-21T14:47:58.465Z,985.26
2017-07-21T14:48:58.421Z,985.21
2017-07-21T14:49:58.428Z,985.14
2017-07-21T14:50:58.435Z,985.11
2017-07-21T14:51:58.441Z,985.04
2017-07-21T14:52:58.448Z,985.07
2017-07-21T14:53:58.455Z,985.08
2017-07-21T14:54:58.462Z,985.1
2017-07-21T14:55:58.468Z,985.08
2017-07-21T14:56:58.475Z,985.05
2017-07-21T14:57:58.493Z,985.09
2017-07-21T14:58:58.493Z,985.11
2017-07-21T14:59:58.495Z,985.05
2017-07-21T15:00:58.529Z,985.05
2017-07-21T15:01:58.511Z,985.04
2017-07-21T15:03:00.416Z,984.98
2017-07-21T15:03:58.521Z,985.01
2017-07-21T15:04:58.528Z,984.96
2017-07-21T15:05:58.535Z,984.94
2017-07-21T15:06:58.561Z,984.92
2017-07-21T15:07:58.561Z,984.96
2017-07-21T15:08:58.559Z,984.89
2017-07-21T15:09:58.571Z,984.89
2017-07-21T15:10:58.569Z,984.9
2017-07-21T15:11:58.574Z,984.86
2017-07-21T15:12:58.582Z,984.87
2017-07-21T15:13:58.588Z,984.84
2017-07-21T15:14:58.594Z,984.86
2017-07-21T15:15:58.599Z,984.86
2017-07-21T15:16:58.608Z,984.98
2017-07-21T15:17:58.619Z,984.89
2017-07-21T15:18:58.620Z,984.82
2017-07-21T15:19:58.628Z,984.78
2017-07-21T15:20:58.634Z,984.75
2017-07-21T15:21:58.638Z,984.75
2017-07-21T15:22:58.645Z,984.72
2017-07-21T15:23:58.654Z,984.69
2017-07-21T15:24:58.658Z,984.68
2017-07-21T15:25:58.666Z,984.7
2017-07-21T15:26:58.680Z,984.64
2017-07-21T15:27:58.679Z,984.57
2017-07-21T15:28:58.686Z,984.62
2017-07-21T15:29:58.690Z,984.55
2017-07-21T15:30:58.697Z,984.56
2017-07-21T15:31:58.704Z,984.51
2017-07-21T15:32:58.711Z,984.46
2017-07-21T15:33:58.719Z,984.48
2017-07-21T15:34:58.722Z,984.44
2017-07-21T15:35:58.729Z,984.47
2017-07-21T15:36:58.736Z,984.44
2017-07-21T15:37:58.752Z,984.41
2017-07-21T15:38:58.749Z,984.41
2017-07-21T15:39:58.755Z,984.45
2017-07-21T15:40:58.761Z,984.41
2017-07-21T15:41:58.768Z,984.38
2017-07-21T15:42:58.777Z,984.39
2017-07-21T15:43:58.782Z,984.31
2017-07-21T15:44:58.788Z,984.32
2017-07-21T15:45:58.795Z,984.29
2017-07-21T15:46:58.805Z,984.17
2017-07-21T15:47:58.807Z,984.16